Impacts TAF Board INFO
FOR SITUATIONAL AWARENESS. NOT TO BE USED FOR FLIGHT PLANNING PURPOSES.
IDs:

KMDW - Chicago/Midway Intl, IL, US

Issued at 0524 UTC 21 Jan 2017
Updated at 0830 UTC 21 Jan 2017
Potential Impact None Slight Moderate High
Time0818Z 21/09Z 21/10Z 21/11Z 21/12Z 21/13Z 21/14Z 21/15Z 21/16Z 21/17Z 21/18Z 21/19Z 21/20Z 21/21Z
Type OBS PRVL PRVL PRVL PRVL PRVL PRVL PRVL PRVL PRVL PRVL PRVL PRVL PRVL
VIS 2 1.5 1.5 1.5 3 5 5 5 >6 >6 >6 >6 >6 >6
CIG 11 4 4 4 4 15 15 15 -- -- -- -- -- --
Cover OVC OVC OVC OVC OVC BKN BKN BKN FEW FEW FEW FEW FEW FEW
FltCat IFR LIFR LIFR LIFR LIFR MVFR MVFR MVFR VFR VFR VFR VFR VFR VFR
WX BR BR BR BR BR BR BR BR -- -- -- -- -- --
WDir 130 150 150 150 160 170 170 170 190 190 190 190 190 190
WSpd 5 7 7 7 9 11 11 11 12 12 12 12 12 12
WGst -- -- -- -- -- -- -- -- 18 18 18 18 18 18

Raw TAF
KMDW 210524Z 2106/2206 13007KT 2SM BR SCT004 OVC010
  TEMPO 2106/2109 1SM -DZ BR OVC004
  FM210900 15007KT 1 1/2SM BR OVC004
  FM211200 16009KT 3SM BR BKN004 OVC010
  FM211300 17011KT 5SM BR SCT007 BKN015
  FM211600 19012G18KT P6SM FEW025
  FM220000 18006KT 6SM BR FEW010 SCT120
  FM220300 VRB03KT 3SM BR SCT004 BKN008


Raw METAR
KMDW 210818Z 13005KT 2SM BR FEW008 BKN011 OVC035 08/07 A2959 RMK AO2 DZE12 P0000 T00780072
KMDW 210753Z 14005KT 2SM -DZ BR FEW008 SCT011 OVC037 08/07 A2960 RMK AO2 DZB50 SLP028 P0000 T00830072
KMDW 210739Z 16006KT 2SM BR SCT008 BKN011 OVC050 08/08 A2960 RMK AO2 T00830078
KMDW 210653Z 18003KT 2SM BR BKN008 OVC013 08/07 A2960 RMK AO2 SLP030 T00780072
KMDW 210642Z 16004KT 2SM BR SCT008 BKN013 OVC024 08/07 A2960 RMK AO2 T00780072
KMDW 210553Z 17005KT 2SM BR BKN016 OVC019 08/07 A2961 RMK AO2 DZB21E43 SLP032 P0000 60000 T00830072 10083 20050 400830028 58013

METAR Board
Radar Display
Forecast Discussion

FOR SITUATIONAL AWARENESS. NOT TO BE USED FOR FLIGHT PLANNING PURPOSES.

Page loaded:  08:30 UTC  |   12:30 AM Pacific  |   01:30 AM Mountain  |   02:30 AM Central  |   03:30 AM Eastern

 

ADVISORIES

FORECASTS

FORECASTS

OBSERVATIONS

USER TOOLS

ABOUT US